sensor_id;sensor_type;location;lat;lon;timestamp;P1;durP1;ratioP1;P2;durP2;ratioP2
71288;SDS011;59068;52.502;9.860;2023-11-19T00:01:31;2.00;;;1.47;;
71288;SDS011;59068;52.502;9.860;2023-11-19T00:04:00;1.67;;;1.20;;
71288;SDS011;59068;52.502;9.860;2023-11-19T00:06:26;3.13;;;1.80;;
71288;SDS011;59068;52.502;9.860;2023-11-19T00:08:53;1.63;;;1.50;;
71288;SDS011;59068;52.502;9.860;2023-11-19T00:11:19;1.77;;;1.50;;
71288;SDS011;59068;52.502;9.860;2023-11-19T00:13:46;1.73;;;1.63;;
71288;SDS011;59068;52.502;9.860;2023-11-19T00:16:13;2.30;;;1.63;;
71288;SDS011;59068;52.502;9.860;2023-11-19T00:18:41;1.50;;;1.40;;
71288;SDS011;59068;52.502;9.860;2023-11-19T00:21:10;1.70;;;1.60;;
71288;SDS011;59068;52.502;9.860;2023-11-19T00:23:36;1.40;;;1.30;;
71288;SDS011;59068;52.502;9.860;2023-11-19T00:26:03;1.87;;;1.60;;
71288;SDS011;59068;52.502;9.860;2023-11-19T00:28:32;2.43;;;1.80;;
71288;SDS011;59068;52.502;9.860;2023-11-19T00:30:59;2.43;;;1.83;;
71288;SDS011;59068;52.502;9.860;2023-11-19T00:33:28;1.57;;;1.40;;
71288;SDS011;59068;52.502;9.860;2023-11-19T00:35:54;2.33;;;2.07;;
71288;SDS011;59068;52.502;9.860;2023-11-19T00:38:22;2.00;;;1.80;;
71288;SDS011;59068;52.502;9.860;2023-11-19T00:40:48;3.13;;;1.80;;
71288;SDS011;59068;52.502;9.860;2023-11-19T00:43:15;1.73;;;1.63;;
71288;SDS011;59068;52.502;9.860;2023-11-19T00:45:43;1.77;;;1.67;;
71288;SDS011;59068;52.502;9.860;2023-11-19T00:48:09;1.90;;;1.70;;
71288;SDS011;59068;52.502;9.860;2023-11-19T00:50:36;2.40;;;2.20;;
71288;SDS011;59068;52.502;9.860;2023-11-19T00:53:03;2.60;;;2.40;;
71288;SDS011;59068;52.502;9.860;2023-11-19T00:55:31;2.40;;;2.20;;
71288;SDS011;59068;52.502;9.860;2023-11-19T00:57:58;1.80;;;1.70;;
71288;SDS011;59068;52.502;9.860;2023-11-19T01:00:25;1.63;;;1.53;;
71288;SDS011;59068;52.502;9.860;2023-11-19T01:02:52;1.60;;;1.50;;
71288;SDS011;59068;52.502;9.860;2023-11-19T01:05:19;2.43;;;1.63;;
71288;SDS011;59068;52.502;9.860;2023-11-19T01:07:47;1.60;;;1.50;;
71288;SDS011;59068;52.502;9.860;2023-11-19T01:10:14;1.50;;;1.40;;
71288;SDS011;59068;52.502;9.860;2023-11-19T01:12:42;1.93;;;1.10;;
71288;SDS011;59068;52.502;9.860;2023-11-19T01:15:09;1.50;;;1.40;;
71288;SDS011;59068;52.502;9.860;2023-11-19T01:17:36;1.23;;;1.20;;
71288;SDS011;59068;52.502;9.860;2023-11-19T01:20:04;1.20;;;1.20;;
71288;SDS011;59068;52.502;9.860;2023-11-19T01:22:32;1.53;;;1.20;;
71288;SDS011;59068;52.502;9.860;2023-11-19T01:24:58;1.73;;;1.63;;
71288;SDS011;59068;52.502;9.860;2023-11-19T01:27:25;1.77;;;1.67;;
71288;SDS011;59068;52.502;9.860;2023-11-19T01:29:53;1.43;;;1.33;;
71288;SDS011;59068;52.502;9.860;2023-11-19T01:32:20;1.60;;;1.20;;
71288;SDS011;59068;52.502;9.860;2023-11-19T01:34:47;1.50;;;1.40;;
71288;SDS011;59068;52.502;9.860;2023-11-19T01:37:13;1.50;;;1.40;;
71288;SDS011;59068;52.502;9.860;2023-11-19T01:39:40;1.37;;;1.27;;
71288;SDS011;59068;52.502;9.860;2023-11-19T01:42:10;1.40;;;1.30;;
71288;SDS011;59068;52.502;9.860;2023-11-19T01:44:37;2.03;;;1.53;;
71288;SDS011;59068;52.502;9.860;2023-11-19T01:47:05;1.90;;;1.20;;
71288;SDS011;59068;52.502;9.860;2023-11-19T01:49:32;1.37;;;1.23;;
71288;SDS011;59068;52.502;9.860;2023-11-19T01:51:59;1.43;;;1.33;;
71288;SDS011;59068;52.502;9.860;2023-11-19T01:54:26;1.30;;;1.20;;
71288;SDS011;59068;52.502;9.860;2023-11-19T01:56:53;1.50;;;1.40;;
71288;SDS011;59068;52.502;9.860;2023-11-19T01:59:21;1.03;;;1.03;;
71288;SDS011;59068;52.502;9.860;2023-11-19T02:01:51;1.53;;;1.40;;
71288;SDS011;59068;52.502;9.860;2023-11-19T02:04:19;1.10;;;1.10;;
71288;SDS011;59068;52.502;9.860;2023-11-19T02:06:45;1.57;;;1.10;;
71288;SDS011;59068;52.502;9.860;2023-11-19T02:09:14;1.13;;;1.00;;
71288;SDS011;59068;52.502;9.860;2023-11-19T02:11:44;1.30;;;1.20;;
71288;SDS011;59068;52.502;9.860;2023-11-19T02:14:14;1.97;;;1.00;;
71288;SDS011;59068;52.502;9.860;2023-11-19T02:16:40;1.17;;;1.07;;
71288;SDS011;59068;52.502;9.860;2023-11-19T02:19:07;1.13;;;1.10;;
71288;SDS011;59068;52.502;9.860;2023-11-19T02:21:37;1.20;;;1.10;;
71288;SDS011;59068;52.502;9.860;2023-11-19T02:24:05;1.33;;;0.90;;
71288;SDS011;59068;52.502;9.860;2023-11-19T02:26:33;1.27;;;1.13;;
71288;SDS011;59068;52.502;9.860;2023-11-19T02:29:03;1.20;;;1.10;;
71288;SDS011;59068;52.502;9.860;2023-11-19T02:31:31;1.10;;;1.00;;
71288;SDS011;59068;52.502;9.860;2023-11-19T02:34:00;1.17;;;1.07;;
71288;SDS011;59068;52.502;9.860;2023-11-19T02:36:27;0.87;;;0.87;;
71288;SDS011;59068;52.502;9.860;2023-11-19T02:38:53;1.13;;;1.03;;
71288;SDS011;59068;52.502;9.860;2023-11-19T02:41:20;1.20;;;1.10;;
71288;SDS011;59068;52.502;9.860;2023-11-19T02:43:46;1.30;;;0.80;;
71288;SDS011;59068;52.502;9.860;2023-11-19T02:46:15;0.77;;;0.77;;
71288;SDS011;59068;52.502;9.860;2023-11-19T02:48:42;0.70;;;0.70;;
71288;SDS011;59068;52.502;9.860;2023-11-19T02:51:09;0.70;;;0.70;;
71288;SDS011;59068;52.502;9.860;2023-11-19T02:53:36;0.77;;;0.50;;
71288;SDS011;59068;52.502;9.860;2023-11-19T02:56:05;1.97;;;0.50;;
71288;SDS011;59068;52.502;9.860;2023-11-19T02:58:40;0.40;;;0.40;;
71288;SDS011;59068;52.502;9.860;2023-11-19T03:01:07;0.40;;;0.40;;
71288;SDS011;59068;52.502;9.860;2023-11-19T03:03:45;0.30;;;0.30;;
71288;SDS011;59068;52.502;9.860;2023-11-19T03:06:19;0.40;;;0.40;;
71288;SDS011;59068;52.502;9.860;2023-11-19T03:08:46;0.40;;;0.40;;
71288;SDS011;59068;52.502;9.860;2023-11-19T03:11:13;0.50;;;0.50;;
71288;SDS011;59068;52.502;9.860;2023-11-19T03:13:39;0.80;;;0.60;;
71288;SDS011;59068;52.502;9.860;2023-11-19T03:16:06;0.60;;;0.60;;
71288;SDS011;59068;52.502;9.860;2023-11-19T03:18:33;0.40;;;0.40;;
71288;SDS011;59068;52.502;9.860;2023-11-19T03:21:01;1.73;;;0.67;;
71288;SDS011;59068;52.502;9.860;2023-11-19T03:23:28;0.60;;;0.60;;
71288;SDS011;59068;52.502;9.860;2023-11-19T03:25:54;0.30;;;0.30;;
71288;SDS011;59068;52.502;9.860;2023-11-19T03:28:22;1.07;;;0.70;;
71288;SDS011;59068;52.502;9.860;2023-11-19T03:30:48;0.50;;;0.50;;
71288;SDS011;59068;52.502;9.860;2023-11-19T03:33:15;1.03;;;0.73;;
71288;SDS011;59068;52.502;9.860;2023-11-19T03:35:41;2.00;;;0.87;;
71288;SDS011;59068;52.502;9.860;2023-11-19T03:38:09;0.70;;;0.70;;
71288;SDS011;59068;52.502;9.860;2023-11-19T03:40:35;0.93;;;0.80;;
71288;SDS011;59068;52.502;9.860;2023-11-19T03:43:04;0.80;;;0.80;;
71288;SDS011;59068;52.502;9.860;2023-11-19T03:45:30;0.90;;;0.80;;
71288;SDS011;59068;52.502;9.860;2023-11-19T03:47:57;0.90;;;0.70;;
71288;SDS011;59068;52.502;9.860;2023-11-19T03:50:23;0.90;;;0.90;;
71288;SDS011;59068;52.502;9.860;2023-11-19T03:52:50;0.87;;;0.87;;
71288;SDS011;59068;52.502;9.860;2023-11-19T03:55:18;1.73;;;1.17;;
71288;SDS011;59068;52.502;9.860;2023-11-19T03:57:45;0.87;;;0.80;;
71288;SDS011;59068;52.502;9.860;2023-11-19T04:00:12;0.87;;;0.87;;
71288;SDS011;59068;52.502;9.860;2023-11-19T04:02:39;0.80;;;0.80;;
71288;SDS011;59068;52.502;9.860;2023-11-19T04:05:06;1.27;;;1.00;;
71288;SDS011;59068;52.502;9.860;2023-11-19T04:07:32;0.87;;;0.87;;
71288;SDS011;59068;52.502;9.860;2023-11-19T04:09:59;1.20;;;1.10;;
71288;SDS011;59068;52.502;9.860;2023-11-19T04:12:27;1.20;;;1.10;;
71288;SDS011;59068;52.502;9.860;2023-11-19T04:14:53;1.60;;;1.50;;
71288;SDS011;59068;52.502;9.860;2023-11-19T04:17:21;1.50;;;1.40;;
71288;SDS011;59068;52.502;9.860;2023-11-19T04:19:48;1.53;;;1.43;;
71288;SDS011;59068;52.502;9.860;2023-11-19T04:22:14;1.73;;;1.40;;
71288;SDS011;59068;52.502;9.860;2023-11-19T04:24:41;1.63;;;1.53;;
71288;SDS011;59068;52.502;9.860;2023-11-19T04:27:09;1.57;;;1.47;;
71288;SDS011;59068;52.502;9.860;2023-11-19T04:29:37;1.97;;;1.60;;
71288;SDS011;59068;52.502;9.860;2023-11-19T04:32:03;1.63;;;1.53;;
71288;SDS011;59068;52.502;9.860;2023-11-19T04:34:30;1.60;;;1.50;;
71288;SDS011;59068;52.502;9.860;2023-11-19T04:36:56;2.03;;;1.83;;
71288;SDS011;59068;52.502;9.860;2023-11-19T04:39:23;2.03;;;1.83;;
71288;SDS011;59068;52.502;9.860;2023-11-19T04:41:50;2.43;;;2.23;;
71288;SDS011;59068;52.502;9.860;2023-11-19T04:44:18;2.43;;;2.03;;
71288;SDS011;59068;52.502;9.860;2023-11-19T04:46:46;3.20;;;2.27;;
71288;SDS011;59068;52.502;9.860;2023-11-19T04:49:13;2.33;;;2.13;;
71288;SDS011;59068;52.502;9.860;2023-11-19T04:51:39;2.70;;;2.47;;
71288;SDS011;59068;52.502;9.860;2023-11-19T04:54:06;2.73;;;2.13;;
71288;SDS011;59068;52.502;9.860;2023-11-19T04:56:34;3.33;;;2.90;;
71288;SDS011;59068;52.502;9.860;2023-11-19T04:59:01;3.13;;;2.30;;
71288;SDS011;59068;52.502;9.860;2023-11-19T05:01:27;6.40;;;3.33;;
71288;SDS011;59068;52.502;9.860;2023-11-19T05:03:56;3.60;;;3.30;;
71288;SDS011;59068;52.502;9.860;2023-11-19T05:06:25;4.97;;;3.60;;
71288;SDS011;59068;52.502;9.860;2023-11-19T05:08:52;4.43;;;3.90;;
71288;SDS011;59068;52.502;9.860;2023-11-19T05:11:19;5.27;;;4.07;;
71288;SDS011;59068;52.502;9.860;2023-11-19T05:13:45;6.37;;;4.47;;
71288;SDS011;59068;52.502;9.860;2023-11-19T05:16:12;4.93;;;4.40;;
71288;SDS011;59068;52.502;9.860;2023-11-19T05:18:39;4.57;;;4.13;;
71288;SDS011;59068;52.502;9.860;2023-11-19T05:21:07;5.63;;;5.13;;
71288;SDS011;59068;52.502;9.860;2023-11-19T05:23:33;6.40;;;5.20;;
71288;SDS011;59068;52.502;9.860;2023-11-19T05:26:00;5.33;;;4.83;;
71288;SDS011;59068;52.502;9.860;2023-11-19T05:28:27;6.50;;;5.60;;
71288;SDS011;59068;52.502;9.860;2023-11-19T05:30:53;6.17;;;5.33;;
71288;SDS011;59068;52.502;9.860;2023-11-19T05:33:20;7.90;;;5.53;;
71288;SDS011;59068;52.502;9.860;2023-11-19T05:35:47;9.40;;;6.33;;
71288;SDS011;59068;52.502;9.860;2023-11-19T05:38:14;7.03;;;6.00;;
71288;SDS011;59068;52.502;9.860;2023-11-19T05:40:41;8.47;;;6.03;;
71288;SDS011;59068;52.502;9.860;2023-11-19T05:43:07;7.90;;;5.80;;
71288;SDS011;59068;52.502;9.860;2023-11-19T05:45:34;7.10;;;6.40;;
71288;SDS011;59068;52.502;9.860;2023-11-19T05:48:01;9.83;;;6.20;;
71288;SDS011;59068;52.502;9.860;2023-11-19T05:50:29;7.97;;;6.87;;
71288;SDS011;59068;52.502;9.860;2023-11-19T05:52:55;8.27;;;6.93;;
71288;SDS011;59068;52.502;9.860;2023-11-19T05:55:23;8.10;;;6.87;;
71288;SDS011;59068;52.502;9.860;2023-11-19T05:57:52;7.90;;;7.10;;
71288;SDS011;59068;52.502;9.860;2023-11-19T06:00:19;9.93;;;7.10;;
71288;SDS011;59068;52.502;9.860;2023-11-19T06:02:45;10.80;;;7.60;;
71288;SDS011;59068;52.502;9.860;2023-11-19T06:05:12;11.43;;;8.50;;
71288;SDS011;59068;52.502;9.860;2023-11-19T06:07:43;9.93;;;8.53;;
71288;SDS011;59068;52.502;9.860;2023-11-19T06:10:11;11.73;;;8.40;;
71288;SDS011;59068;52.502;9.860;2023-11-19T06:12:42;11.37;;;7.90;;
71288;SDS011;59068;52.502;9.860;2023-11-19T06:15:09;12.17;;;8.30;;
71288;SDS011;59068;52.502;9.860;2023-11-19T06:17:36;11.17;;;8.33;;
71288;SDS011;59068;52.502;9.860;2023-11-19T06:20:03;10.20;;;8.33;;
71288;SDS011;59068;52.502;9.860;2023-11-19T06:22:30;13.27;;;9.40;;
71288;SDS011;59068;52.502;9.860;2023-11-19T06:24:56;12.83;;;9.40;;
71288;SDS011;59068;52.502;9.860;2023-11-19T06:27:23;14.83;;;9.57;;
71288;SDS011;59068;52.502;9.860;2023-11-19T06:29:51;20.53;;;10.20;;
71288;SDS011;59068;52.502;9.860;2023-11-19T06:32:18;13.53;;;7.53;;
71288;SDS011;59068;52.502;9.860;2023-11-19T06:34:44;10.37;;;8.63;;
71288;SDS011;59068;52.502;9.860;2023-11-19T06:37:11;20.90;;;10.47;;
71288;SDS011;59068;52.502;9.860;2023-11-19T06:39:38;16.83;;;11.27;;
71288;SDS011;59068;52.502;9.860;2023-11-19T06:42:05;12.07;;;9.53;;
71288;SDS011;59068;52.502;9.860;2023-11-19T06:44:32;15.27;;;8.97;;
71288;SDS011;59068;52.502;9.860;2023-11-19T06:47:00;16.03;;;10.03;;
71288;SDS011;59068;52.502;9.860;2023-11-19T06:49:27;18.50;;;11.20;;
71288;SDS011;59068;52.502;9.860;2023-11-19T06:51:53;16.57;;;10.50;;
71288;SDS011;59068;52.502;9.860;2023-11-19T06:54:20;14.90;;;10.63;;
71288;SDS011;59068;52.502;9.860;2023-11-19T06:56:46;17.07;;;10.90;;
71288;SDS011;59068;52.502;9.860;2023-11-19T06:59:12;18.07;;;10.10;;
71288;SDS011;59068;52.502;9.860;2023-11-19T07:01:39;14.33;;;10.80;;
71288;SDS011;59068;52.502;9.860;2023-11-19T07:04:11;14.17;;;9.73;;
71288;SDS011;59068;52.502;9.860;2023-11-19T07:06:37;14.40;;;9.43;;
71288;SDS011;59068;52.502;9.860;2023-11-19T07:09:04;12.13;;;9.53;;
71288;SDS011;59068;52.502;9.860;2023-11-19T07:11:34;17.07;;;9.83;;
71288;SDS011;59068;52.502;9.860;2023-11-19T07:14:01;15.03;;;9.63;;
71288;SDS011;59068;52.502;9.860;2023-11-19T07:16:28;11.87;;;7.67;;
71288;SDS011;59068;52.502;9.860;2023-11-19T07:18:54;16.07;;;9.07;;
71288;SDS011;59068;52.502;9.860;2023-11-19T07:21:22;17.83;;;9.10;;
71288;SDS011;59068;52.502;9.860;2023-11-19T07:23:48;15.57;;;8.17;;
71288;SDS011;59068;52.502;9.860;2023-11-19T07:26:16;16.93;;;8.60;;
71288;SDS011;59068;52.502;9.860;2023-11-19T07:28:43;17.70;;;7.20;;
71288;SDS011;59068;52.502;9.860;2023-11-19T07:31:10;18.43;;;7.80;;
71288;SDS011;59068;52.502;9.860;2023-11-19T07:33:36;13.50;;;7.37;;
71288;SDS011;59068;52.502;9.860;2023-11-19T07:36:03;15.73;;;7.33;;
71288;SDS011;59068;52.502;9.860;2023-11-19T07:38:31;12.30;;;7.17;;
71288;SDS011;59068;52.502;9.860;2023-11-19T07:40:57;20.27;;;6.80;;
71288;SDS011;59068;52.502;9.860;2023-11-19T07:43:24;18.10;;;7.67;;
71288;SDS011;59068;52.502;9.860;2023-11-19T07:45:50;12.80;;;7.07;;
71288;SDS011;59068;52.502;9.860;2023-11-19T07:48:17;11.97;;;6.30;;
71288;SDS011;59068;52.502;9.860;2023-11-19T07:50:47;13.30;;;7.17;;
71288;SDS011;59068;52.502;9.860;2023-11-19T07:53:15;10.33;;;5.33;;
71288;SDS011;59068;52.502;9.860;2023-11-19T07:55:43;13.03;;;5.93;;
71288;SDS011;59068;52.502;9.860;2023-11-19T07:58:10;15.40;;;5.90;;
71288;SDS011;59068;52.502;9.860;2023-11-19T08:00:36;12.63;;;5.50;;
71288;SDS011;59068;52.502;9.860;2023-11-19T08:03:03;13.83;;;5.50;;
71288;SDS011;59068;52.502;9.860;2023-11-19T08:05:30;14.23;;;5.27;;
71288;SDS011;59068;52.502;9.860;2023-11-19T08:07:57;16.17;;;4.87;;
71288;SDS011;59068;52.502;9.860;2023-11-19T08:10:23;12.77;;;4.50;;
71288;SDS011;59068;52.502;9.860;2023-11-19T08:12:51;15.10;;;4.60;;
71288;SDS011;59068;52.502;9.860;2023-11-19T08:15:17;17.03;;;5.20;;
71288;SDS011;59068;52.502;9.860;2023-11-19T08:17:44;13.40;;;4.47;;
71288;SDS011;59068;52.502;9.860;2023-11-19T08:20:10;13.73;;;4.10;;
71288;SDS011;59068;52.502;9.860;2023-11-19T08:22:37;16.77;;;4.87;;
71288;SDS011;59068;52.502;9.860;2023-11-19T08:25:04;12.87;;;4.20;;
71288;SDS011;59068;52.502;9.860;2023-11-19T08:27:30;22.57;;;4.60;;
71288;SDS011;59068;52.502;9.860;2023-11-19T08:29:58;12.37;;;3.70;;
71288;SDS011;59068;52.502;9.860;2023-11-19T08:32:25;13.97;;;4.07;;
71288;SDS011;59068;52.502;9.860;2023-11-19T08:34:51;17.43;;;4.50;;
71288;SDS011;59068;52.502;9.860;2023-11-19T08:37:17;14.23;;;3.70;;
71288;SDS011;59068;52.502;9.860;2023-11-19T08:39:46;13.93;;;3.77;;
71288;SDS011;59068;52.502;9.860;2023-11-19T08:42:12;18.67;;;4.27;;
71288;SDS011;59068;52.502;9.860;2023-11-19T08:44:38;14.73;;;4.20;;
71288;SDS011;59068;52.502;9.860;2023-11-19T08:47:09;13.63;;;4.37;;
71288;SDS011;59068;52.502;9.860;2023-11-19T08:49:40;17.17;;;3.70;;
71288;SDS011;59068;52.502;9.860;2023-11-19T08:52:07;15.67;;;3.90;;
71288;SDS011;59068;52.502;9.860;2023-11-19T08:54:34;13.23;;;3.50;;
71288;SDS011;59068;52.502;9.860;2023-11-19T08:57:01;14.73;;;4.03;;
71288;SDS011;59068;52.502;9.860;2023-11-19T08:59:28;11.37;;;3.93;;
71288;SDS011;59068;52.502;9.860;2023-11-19T09:01:54;15.37;;;4.00;;
71288;SDS011;59068;52.502;9.860;2023-11-19T09:04:22;15.27;;;4.33;;
71288;SDS011;59068;52.502;9.860;2023-11-19T09:06:48;13.70;;;4.43;;
71288;SDS011;59068;52.502;9.860;2023-11-19T09:09:15;16.40;;;4.13;;
71288;SDS011;59068;52.502;9.860;2023-11-19T09:11:41;17.87;;;4.27;;
71288;SDS011;59068;52.502;9.860;2023-11-19T09:14:08;13.00;;;4.37;;
71288;SDS011;59068;52.502;9.860;2023-11-19T09:16:34;16.10;;;3.30;;
71288;SDS011;59068;52.502;9.860;2023-11-19T09:19:00;14.97;;;3.70;;
71288;SDS011;59068;52.502;9.860;2023-11-19T09:21:29;13.13;;;3.93;;
71288;SDS011;59068;52.502;9.860;2023-11-19T09:23:55;15.50;;;3.07;;
71288;SDS011;59068;52.502;9.860;2023-11-19T09:26:22;13.37;;;3.37;;
71288;SDS011;59068;52.502;9.860;2023-11-19T09:28:48;9.73;;;3.13;;
71288;SDS011;59068;52.502;9.860;2023-11-19T09:31:27;17.53;;;3.73;;
71288;SDS011;59068;52.502;9.860;2023-11-19T09:33:54;16.30;;;3.77;;
71288;SDS011;59068;52.502;9.860;2023-11-19T09:36:20;12.63;;;3.43;;
71288;SDS011;59068;52.502;9.860;2023-11-19T09:38:48;22.07;;;3.87;;
71288;SDS011;59068;52.502;9.860;2023-11-19T09:41:14;16.83;;;4.20;;
71288;SDS011;59068;52.502;9.860;2023-11-19T09:43:42;23.07;;;4.83;;
71288;SDS011;59068;52.502;9.860;2023-11-19T09:46:09;22.23;;;4.00;;
71288;SDS011;59068;52.502;9.860;2023-11-19T09:48:37;19.90;;;4.00;;
71288;SDS011;59068;52.502;9.860;2023-11-19T09:51:05;14.97;;;4.23;;
71288;SDS011;59068;52.502;9.860;2023-11-19T09:53:32;14.37;;;4.07;;
71288;SDS011;59068;52.502;9.860;2023-11-19T09:56:01;16.93;;;4.00;;
71288;SDS011;59068;52.502;9.860;2023-11-19T09:58:28;13.13;;;4.00;;
71288;SDS011;59068;52.502;9.860;2023-11-19T10:00:54;13.97;;;4.03;;
71288;SDS011;59068;52.502;9.860;2023-11-19T10:03:20;15.30;;;3.80;;
71288;SDS011;59068;52.502;9.860;2023-11-19T10:05:48;15.40;;;3.47;;
71288;SDS011;59068;52.502;9.860;2023-11-19T10:08:14;14.03;;;3.20;;
71288;SDS011;59068;52.502;9.860;2023-11-19T10:10:42;10.63;;;2.80;;
71288;SDS011;59068;52.502;9.860;2023-11-19T10:13:10;7.67;;;3.13;;
71288;SDS011;59068;52.502;9.860;2023-11-19T10:15:37;15.10;;;3.83;;
71288;SDS011;59068;52.502;9.860;2023-11-19T10:18:03;14.80;;;3.17;;
71288;SDS011;59068;52.502;9.860;2023-11-19T10:20:34;15.47;;;3.10;;
71288;SDS011;59068;52.502;9.860;2023-11-19T10:23:01;14.47;;;3.13;;
71288;SDS011;59068;52.502;9.860;2023-11-19T10:25:28;12.57;;;2.57;;
71288;SDS011;59068;52.502;9.860;2023-11-19T10:27:54;11.67;;;3.40;;
71288;SDS011;59068;52.502;9.860;2023-11-19T10:30:23;13.73;;;2.97;;
71288;SDS011;59068;52.502;9.860;2023-11-19T10:33:02;15.70;;;3.80;;
71288;SDS011;59068;52.502;9.860;2023-11-19T10:35:28;8.37;;;2.40;;
71288;SDS011;59068;52.502;9.860;2023-11-19T10:37:55;13.83;;;3.07;;
71288;SDS011;59068;52.502;9.860;2023-11-19T10:40:21;9.60;;;3.20;;
71288;SDS011;59068;52.502;9.860;2023-11-19T10:42:48;11.10;;;2.47;;
71288;SDS011;59068;52.502;9.860;2023-11-19T10:45:25;11.23;;;2.70;;
71288;SDS011;59068;52.502;9.860;2023-11-19T10:47:51;14.20;;;3.03;;
71288;SDS011;59068;52.502;9.860;2023-11-19T10:50:18;11.60;;;3.07;;
71288;SDS011;59068;52.502;9.860;2023-11-19T10:52:45;12.87;;;3.17;;
71288;SDS011;59068;52.502;9.860;2023-11-19T10:55:12;12.97;;;2.87;;
71288;SDS011;59068;52.502;9.860;2023-11-19T10:57:42;13.83;;;3.47;;
71288;SDS011;59068;52.502;9.860;2023-11-19T11:00:10;13.33;;;2.77;;
71288;SDS011;59068;52.502;9.860;2023-11-19T11:02:40;14.83;;;3.13;;
71288;SDS011;59068;52.502;9.860;2023-11-19T11:05:08;14.97;;;2.80;;
71288;SDS011;59068;52.502;9.860;2023-11-19T11:07:36;10.60;;;2.47;;
71288;SDS011;59068;52.502;9.860;2023-11-19T11:10:02;13.90;;;2.30;;
71288;SDS011;59068;52.502;9.860;2023-11-19T11:12:31;17.67;;;3.43;;
71288;SDS011;59068;52.502;9.860;2023-11-19T11:14:59;14.70;;;3.17;;
71288;SDS011;59068;52.502;9.860;2023-11-19T11:17:26;11.70;;;3.07;;
71288;SDS011;59068;52.502;9.860;2023-11-19T11:19:56;14.07;;;4.30;;
71288;SDS011;59068;52.502;9.860;2023-11-19T11:22:23;12.43;;;3.33;;
71288;SDS011;59068;52.502;9.860;2023-11-19T11:25:02;17.17;;;3.70;;
71288;SDS011;59068;52.502;9.860;2023-11-19T11:27:48;9.50;;;2.07;;
71288;SDS011;59068;52.502;9.860;2023-11-19T11:30:19;12.77;;;3.13;;
71288;SDS011;59068;52.502;9.860;2023-11-19T11:32:50;17.50;;;3.70;;
71288;SDS011;59068;52.502;9.860;2023-11-19T11:35:27;11.13;;;2.73;;
71288;SDS011;59068;52.502;9.860;2023-11-19T11:38:00;18.43;;;3.30;;
71288;SDS011;59068;52.502;9.860;2023-11-19T11:40:27;13.57;;;2.73;;
71288;SDS011;59068;52.502;9.860;2023-11-19T11:42:54;18.93;;;3.37;;
71288;SDS011;59068;52.502;9.860;2023-11-19T11:45:34;14.97;;;3.53;;
71288;SDS011;59068;52.502;9.860;2023-11-19T11:48:08;9.67;;;2.87;;
71288;SDS011;59068;52.502;9.860;2023-11-19T11:50:46;14.77;;;3.70;;
71288;SDS011;59068;52.502;9.860;2023-11-19T11:53:17;9.20;;;3.03;;
71288;SDS011;59068;52.502;9.860;2023-11-19T11:55:54;10.63;;;2.87;;
71288;SDS011;59068;52.502;9.860;2023-11-19T11:58:21;9.57;;;2.83;;
71288;SDS011;59068;52.502;9.860;2023-11-19T12:00:51;11.13;;;3.33;;
71288;SDS011;59068;52.502;9.860;2023-11-19T12:03:19;9.60;;;2.43;;
71288;SDS011;59068;52.502;9.860;2023-11-19T12:05:48;10.30;;;3.00;;
71288;SDS011;59068;52.502;9.860;2023-11-19T12:08:18;14.57;;;3.77;;
71288;SDS011;59068;52.502;9.860;2023-11-19T12:10:46;12.70;;;3.47;;
71288;SDS011;59068;52.502;9.860;2023-11-19T12:13:14;14.87;;;3.90;;
71288;SDS011;59068;52.502;9.860;2023-11-19T12:18:30;13.27;;;3.60;;
71288;SDS011;59068;52.502;9.860;2023-11-19T12:20:58;15.20;;;4.57;;
71288;SDS011;59068;52.502;9.860;2023-11-19T12:23:25;17.40;;;4.30;;
71288;SDS011;59068;52.502;9.860;2023-11-19T12:25:52;17.77;;;3.73;;
71288;SDS011;59068;52.502;9.860;2023-11-19T12:28:19;8.43;;;2.70;;
71288;SDS011;59068;52.502;9.860;2023-11-19T12:30:45;15.50;;;3.50;;
71288;SDS011;59068;52.502;9.860;2023-11-19T12:33:22;17.30;;;4.23;;
71288;SDS011;59068;52.502;9.860;2023-11-19T12:35:50;14.07;;;3.67;;
71288;SDS011;59068;52.502;9.860;2023-11-19T12:38:21;15.33;;;3.60;;
71288;SDS011;59068;52.502;9.860;2023-11-19T12:41:01;11.43;;;3.03;;
71288;SDS011;59068;52.502;9.860;2023-11-19T12:43:28;11.10;;;3.17;;
71288;SDS011;59068;52.502;9.860;2023-11-19T12:45:54;11.30;;;3.10;;
71288;SDS011;59068;52.502;9.860;2023-11-19T12:48:21;9.57;;;2.83;;
71288;SDS011;59068;52.502;9.860;2023-11-19T12:50:51;10.67;;;2.67;;
71288;SDS011;59068;52.502;9.860;2023-11-19T12:53:18;11.63;;;3.20;;
71288;SDS011;59068;52.502;9.860;2023-11-19T12:55:46;10.10;;;2.73;;
71288;SDS011;59068;52.502;9.860;2023-11-19T12:58:27;13.63;;;2.80;;
71288;SDS011;59068;52.502;9.860;2023-11-19T13:00:58;14.43;;;3.30;;
71288;SDS011;59068;52.502;9.860;2023-11-19T13:03:29;10.37;;;2.93;;
71288;SDS011;59068;52.502;9.860;2023-11-19T13:06:00;9.00;;;2.87;;
71288;SDS011;59068;52.502;9.860;2023-11-19T13:08:27;12.17;;;3.37;;
71288;SDS011;59068;52.502;9.860;2023-11-19T13:10:55;13.03;;;3.10;;
71288;SDS011;59068;52.502;9.860;2023-11-19T13:13:21;16.87;;;2.93;;
71288;SDS011;59068;52.502;9.860;2023-11-19T13:15:48;13.30;;;2.90;;
71288;SDS011;59068;52.502;9.860;2023-11-19T13:18:15;10.80;;;3.03;;
71288;SDS011;59068;52.502;9.860;2023-11-19T13:20:42;15.40;;;3.27;;
71288;SDS011;59068;52.502;9.860;2023-11-19T13:23:08;9.53;;;3.00;;
71288;SDS011;59068;52.502;9.860;2023-11-19T13:25:35;7.27;;;2.40;;
71288;SDS011;59068;52.502;9.860;2023-11-19T13:28:03;13.30;;;3.03;;
71288;SDS011;59068;52.502;9.860;2023-11-19T13:30:31;10.70;;;2.70;;
71288;SDS011;59068;52.502;9.860;2023-11-19T13:32:57;10.97;;;2.67;;
71288;SDS011;59068;52.502;9.860;2023-11-19T13:35:26;11.10;;;2.77;;
71288;SDS011;59068;52.502;9.860;2023-11-19T13:37:55;15.47;;;2.67;;
71288;SDS011;59068;52.502;9.860;2023-11-19T13:40:24;13.97;;;3.27;;
71288;SDS011;59068;52.502;9.860;2023-11-19T13:42:51;12.17;;;2.07;;
71288;SDS011;59068;52.502;9.860;2023-11-19T13:45:18;10.10;;;2.03;;
71288;SDS011;59068;52.502;9.860;2023-11-19T13:47:45;8.53;;;3.03;;
71288;SDS011;59068;52.502;9.860;2023-11-19T13:50:14;11.53;;;3.07;;
71288;SDS011;59068;52.502;9.860;2023-11-19T13:52:43;12.70;;;3.10;;
71288;SDS011;59068;52.502;9.860;2023-11-19T13:55:10;13.57;;;3.27;;
71288;SDS011;59068;52.502;9.860;2023-11-19T13:57:39;12.00;;;3.33;;
71288;SDS011;59068;52.502;9.860;2023-11-19T14:00:06;9.60;;;3.07;;
71288;SDS011;59068;52.502;9.860;2023-11-19T14:02:38;12.20;;;3.23;;
71288;SDS011;59068;52.502;9.860;2023-11-19T14:05:05;11.47;;;2.37;;
71288;SDS011;59068;52.502;9.860;2023-11-19T14:07:31;11.93;;;3.30;;
71288;SDS011;59068;52.502;9.860;2023-11-19T14:09:58;12.27;;;3.00;;
71288;SDS011;59068;52.502;9.860;2023-11-19T14:12:25;17.33;;;4.03;;
71288;SDS011;59068;52.502;9.860;2023-11-19T14:14:51;13.43;;;3.23;;
71288;SDS011;59068;52.502;9.860;2023-11-19T14:17:18;13.00;;;2.80;;
71288;SDS011;59068;52.502;9.860;2023-11-19T14:19:46;15.10;;;3.50;;
71288;SDS011;59068;52.502;9.860;2023-11-19T14:22:14;9.83;;;3.03;;
71288;SDS011;59068;52.502;9.860;2023-11-19T14:24:41;14.27;;;3.60;;
71288;SDS011;59068;52.502;9.860;2023-11-19T14:27:08;14.50;;;3.47;;
71288;SDS011;59068;52.502;9.860;2023-11-19T14:29:34;10.93;;;3.50;;
71288;SDS011;59068;52.502;9.860;2023-11-19T14:32:01;9.73;;;3.20;;
71288;SDS011;59068;52.502;9.860;2023-11-19T14:34:27;15.53;;;2.93;;
71288;SDS011;59068;52.502;9.860;2023-11-19T14:36:55;15.83;;;3.30;;
71288;SDS011;59068;52.502;9.860;2023-11-19T14:39:22;12.00;;;2.80;;
71288;SDS011;59068;52.502;9.860;2023-11-19T14:41:48;17.87;;;4.13;;
71288;SDS011;59068;52.502;9.860;2023-11-19T14:44:15;20.13;;;3.03;;
71288;SDS011;59068;52.502;9.860;2023-11-19T14:46:42;13.30;;;3.60;;